Time;durP1;ratioP1;P1;durP2;ratioP2;P2;SDS_P1;SDS_P2;PMS_P1;PMS_P2;Temp;Humidity;BMP_temperature;BMP_pressure;BME280_temperature;BME280_humidity;BME280_pressure;Samples;Min_cycle;Max_cycle;Signal;HPM_P1;HPM_P2
2024/04/06 00:00:29;;;;;;;3.00;2.40;;;12.70;99.90;;;;;;5017170;28;20767;-79
2024/04/06 00:02:55;;;;;;;3.00;2.20;;;12.60;99.90;;;;;;5023201;28;20478;-80
2024/04/06 00:05:20;;;;;;;4.40;2.50;;;12.70;99.90;;;;;;5034596;28;20426;-80
2024/04/06 00:07:46;;;;;;;2.80;2.10;;;12.90;99.90;;;;;;5038680;28;20397;-78
2024/04/06 00:10:12;;;;;;;5.07;2.20;;;12.60;99.90;;;;;;5050346;28;20387;-78
2024/04/06 00:12:37;;;;;;;4.50;2.20;;;12.60;99.90;;;;;;5049532;28;20411;-80
2024/04/06 00:15:04;;;;;;;2.22;1.90;;;12.40;99.90;;;;;;5038364;28;20795;-80
2024/04/06 00:17:29;;;;;;;2.30;2.10;;;12.80;99.90;;;;;;5037023;28;20395;-80
2024/04/06 00:19:54;;;;;;;3.13;1.95;;;12.20;99.90;;;;;;5019885;28;20437;-78
2024/04/06 00:22:20;;;;;;;2.90;2.70;;;12.70;99.90;;;;;;5019540;28;20387;-80
2024/04/06 00:24:46;;;;;;;2.20;2.00;;;12.40;99.90;;;;;;5036823;28;20528;-79
2024/04/06 00:27:11;;;;;;;3.25;2.47;;;12.30;99.90;;;;;;5019282;28;20403;-80
2024/04/06 00:29:37;;;;;;;2.20;2.00;;;12.00;99.90;;;;;;5036812;28;20413;-80
2024/04/06 00:32:03;;;;;;;2.60;2.20;;;12.40;99.90;;;;;;5019241;28;20402;-79
2024/04/06 00:34:28;;;;;;;3.35;2.65;;;12.50;99.90;;;;;;5016379;28;20391;-80
2024/04/06 00:36:56;;;;;;;2.30;2.10;;;12.70;99.90;;;;;;5017358;28;20934;-80
2024/04/06 00:39:21;;;;;;;4.90;2.60;;;12.40;99.90;;;;;;5018846;28;20810;-80
2024/04/06 00:41:47;;;;;;;3.63;2.10;;;14.10;99.90;;;;;;5018048;28;20399;-80
2024/04/06 00:44:14;;;;;;;4.90;2.00;;;12.50;99.90;;;;;;5035565;28;20729;-80
2024/04/06 00:46:39;;;;;;;3.40;1.80;;;11.90;99.90;;;;;;5025121;28;20395;-79
2024/04/06 00:49:06;;;;;;;2.20;2.00;;;12.20;99.90;;;;;;5039079;28;20408;-79
2024/04/06 00:51:31;;;;;;;4.88;1.90;;;11.90;99.90;;;;;;5047828;28;20407;-78
2024/04/06 00:53:57;;;;;;;3.80;1.85;;;12.50;99.90;;;;;;5043884;28;20402;-78
2024/04/06 00:56:22;;;;;;;3.35;2.05;;;11.80;99.90;;;;;;5041108;28;20398;-80
2024/04/06 00:58:48;;;;;;;4.30;2.00;;;11.80;99.90;;;;;;5043667;28;20379;-79
2024/04/06 01:01:13;;;;;;;2.30;1.70;;;12.30;99.90;;;;;;5046164;28;20474;-79
2024/04/06 01:03:39;;;;;;;3.20;1.63;;;11.70;99.90;;;;;;5026233;28;20399;-80
2024/04/06 01:06:05;;;;;;;2.70;1.90;;;;;;;;;;5020110;28;20469;-80
2024/04/06 01:08:32;;;;;;;4.75;2.08;;;12.00;99.90;;;;;;5017075;28;20406;-80
2024/04/06 01:10:57;;;;;;;2.50;1.80;;;11.40;99.90;;;;;;5026585;28;20410;-79
2024/04/06 01:13:23;;;;;;;3.70;2.10;;;10.80;99.90;;;;;;5018789;28;20445;-80
2024/04/06 01:15:49;;;;;;;2.20;1.90;;;11.50;99.90;;;;;;5034674;28;20851;-80
2024/04/06 01:18:14;;;;;;;4.45;2.20;;;11.80;99.90;;;;;;5034941;28;20957;-80
2024/04/06 01:20:43;;;;;;;3.00;2.00;;;11.60;99.90;;;;;;5040142;28;20405;-79
2024/04/06 01:23:11;;;;;;;3.90;1.92;;;;;;;;;;5030899;28;20395;-78
2024/04/06 01:25:37;;;;;;;4.20;2.10;;;11.90;99.90;;;;;;5045794;28;20386;-80
2024/04/06 01:28:03;;;;;;;3.08;1.90;;;11.30;99.90;;;;;;5034664;28;20395;-80
2024/04/06 01:30:28;;;;;;;3.05;2.10;;;11.50;99.90;;;;;;5034538;28;20402;-80
2024/04/06 01:32:54;;;;;;;3.60;2.00;;;11.50;99.90;;;;;;5033238;28;20898;-80
2024/04/06 01:35:19;;;;;;;4.63;1.83;;;11.20;99.90;;;;;;5016946;28;20498;-80
2024/04/06 01:37:45;;;;;;;3.50;2.23;;;11.40;99.90;;;;;;5031433;28;20386;-79
2024/04/06 01:40:11;;;;;;;2.28;1.80;;;11.30;99.90;;;;;;5034780;28;20517;-80
2024/04/06 01:42:38;;;;;;;3.50;1.83;;;11.30;99.90;;;;;;5038814;28;20383;-80
2024/04/06 01:45:04;;;;;;;6.00;1.90;;;11.80;99.90;;;;;;5043297;28;20391;-79
2024/04/06 01:47:30;;;;;;;2.00;1.87;;;11.50;99.90;;;;;;5048447;28;20391;-79
2024/04/06 01:49:58;;;;;;;2.10;1.50;;;11.40;99.90;;;;;;5031197;28;20926;-79
2024/04/06 01:52:23;;;;;;;2.20;1.80;;;11.30;99.90;;;;;;5020288;28;20407;-81
2024/04/06 01:54:49;;;;;;;3.70;1.80;;;11.60;99.90;;;;;;5017027;28;20474;-81
2024/04/06 01:57:15;;;;;;;2.88;1.90;;;11.50;99.90;;;;;;5015977;28;20383;-81
2024/04/06 01:59:43;;;;;;;2.40;2.00;;;11.90;99.90;;;;;;5016659;28;20391;-80
2024/04/06 02:02:09;;;;;;;2.40;2.20;;;11.10;99.90;;;;;;5016677;28;20398;-80
2024/04/06 02:04:34;;;;;;;2.20;1.90;;;11.40;99.90;;;;;;5036790;28;20391;-79
2024/04/06 02:07:00;;;;;;;3.50;2.50;;;11.60;99.90;;;;;;5031669;28;20414;-78
2024/04/06 02:09:25;;;;;;;3.05;2.47;;;10.90;99.90;;;;;;5013472;28;20420;-80
2024/04/06 02:11:51;;;;;;;3.77;2.40;;;11.20;99.90;;;;;;4998307;28;20494;-80
2024/04/06 02:14:16;;;;;;;2.93;2.20;;;11.70;99.90;;;;;;5014679;28;20467;-81
2024/04/06 02:16:42;;;;;;;2.60;2.40;;;12.00;99.90;;;;;;5012529;28;20389;-80
2024/04/06 02:19:08;;;;;;;2.67;2.40;;;11.50;99.90;;;;;;5014318;28;20396;-80
2024/04/06 02:21:33;;;;;;;3.85;2.35;;;12.00;99.90;;;;;;5014960;28;20411;-79
2024/04/06 02:23:59;;;;;;;3.30;2.20;;;11.80;99.90;;;;;;5024097;28;20430;-80
2024/04/06 02:26:24;;;;;;;3.20;2.30;;;11.60;99.90;;;;;;5034269;28;20412;-78
2024/04/06 02:28:50;;;;;;;3.97;2.58;;;11.00;99.90;;;;;;5036383;28;20425;-78
2024/04/06 02:31:15;;;;;;;2.60;2.20;;;11.30;99.90;;;;;;5027575;28;20475;-80
2024/04/06 02:33:41;;;;;;;3.00;2.20;;;11.20;99.90;;;;;;5016517;28;20939;-80
2024/04/06 02:36:07;;;;;;;4.30;2.53;;;;;;;;;;5016305;28;20389;-81
2024/04/06 02:38:33;;;;;;;5.72;2.10;;;11.20;99.90;;;;;;4998422;28;20380;-81
2024/04/06 02:40:58;;;;;;;2.47;2.28;;;10.60;99.90;;;;;;5014446;28;20388;-81
2024/04/06 02:43:24;;;;;;;3.42;2.10;;;11.20;99.90;;;;;;4998274;28;20396;-80
2024/04/06 02:45:49;;;;;;;3.80;2.00;;;11.20;99.90;;;;;;5013712;28;20467;-81
2024/04/06 02:48:15;;;;;;;2.20;2.00;;;10.80;99.90;;;;;;4998111;28;20392;-81
2024/04/06 02:50:40;;;;;;;2.55;1.83;;;10.80;99.90;;;;;;5014693;28;20431;-81
2024/04/06 02:53:06;;;;;;;3.20;2.20;;;10.90;99.90;;;;;;5016031;28;20389;-80
2024/04/06 02:55:31;;;;;;;2.47;2.20;;;11.10;99.90;;;;;;5014759;28;20385;-81
2024/04/06 02:57:57;;;;;;;4.88;1.80;;;10.80;99.90;;;;;;5019501;28;20906;-81
2024/04/06 03:00:22;;;;;;;1.60;1.50;;;11.00;99.90;;;;;;5035623;28;20387;-80
2024/04/06 03:02:48;;;;;;;2.10;1.90;;;11.00;99.90;;;;;;5034757;28;20395;-81
2024/04/06 03:05:13;;;;;;;2.25;1.70;;;10.90;99.90;;;;;;5035244;28;20394;-81
2024/04/06 03:07:39;;;;;;;2.50;2.10;;;10.60;99.90;;;;;;5034404;28;20391;-81
2024/04/06 03:10:05;;;;;;;4.10;1.80;;;12.70;99.90;;;;;;5020146;28;20801;-79
2024/04/06 03:12:30;;;;;;;3.50;2.10;;;11.20;99.90;;;;;;5022161;28;20498;-81
2024/04/06 03:14:56;;;;;;;2.13;1.70;;;11.00;99.90;;;;;;5032904;28;20398;-82
2024/04/06 03:17:21;;;;;;;2.58;1.60;;;10.60;99.90;;;;;;5022413;28;20389;-80
2024/04/06 03:19:47;;;;;;;2.00;1.90;;;10.20;99.90;;;;;;5014878;28;20464;-79
2024/04/06 03:22:12;;;;;;;3.10;1.80;;;10.40;99.90;;;;;;5029920;28;20464;-80
2024/04/06 03:24:38;;;;;;;3.28;1.90;;;11.30;99.90;;;;;;5036292;28;20391;-80
2024/04/06 03:27:04;;;;;;;2.85;1.75;;;10.40;99.90;;;;;;5042751;28;20456;-79
2024/04/06 03:29:30;;;;;;;5.00;2.10;;;10.60;99.90;;;;;;5048649;28;20387;-78
2024/04/06 03:31:55;;;;;;;2.17;1.83;;;9.30;99.90;;;;;;5047185;28;20453;-78
2024/04/06 03:34:21;;;;;;;3.72;1.95;;;10.50;99.90;;;;;;5044798;28;20389;-78
2024/04/06 03:36:46;;;;;;;2.00;1.80;;;10.50;99.90;;;;;;5023647;28;20393;-80
2024/04/06 03:39:12;;;;;;;5.30;2.10;;;10.70;99.90;;;;;;5028659;28;20385;-79
2024/04/06 03:41:38;;;;;;;2.30;1.83;;;10.30;99.90;;;;;;5012129;28;20389;-80
2024/04/06 03:44:03;;;;;;;3.08;2.00;;;10.40;99.90;;;;;;5053415;28;20525;-79
2024/04/06 03:46:29;;;;;;;2.20;2.00;;;10.60;99.90;;;;;;5038554;28;20400;-79
2024/04/06 03:48:55;;;;;;;2.57;1.70;;;10.00;99.90;;;;;;5029692;28;20410;-80
2024/04/06 03:51:21;;;;;;;2.30;2.10;;;9.90;99.90;;;;;;5036421;28;20411;-79
2024/04/06 03:53:47;;;;;;;4.00;1.80;;;10.30;99.90;;;;;;5018757;28;20410;-79
2024/04/06 03:56:13;;;;;;;2.20;2.00;;;;;;;;;;5020153;28;20391;-81
2024/04/06 03:58:38;;;;;;;2.20;1.70;;;10.30;99.90;;;;;;5019143;28;20398;-80
2024/04/06 04:01:05;;;;;;;2.03;1.88;;;10.10;99.90;;;;;;5036492;28;20406;-80
2024/04/06 04:03:30;;;;;;;4.50;2.30;;;10.30;99.90;;;;;;5036192;28;20826;-80
2024/04/06 04:05:56;;;;;;;3.60;2.20;;;10.40;99.90;;;;;;5017041;28;20422;-80
2024/04/06 04:08:21;;;;;;;3.90;2.25;;;10.30;99.90;;;;;;5035230;28;20394;-80
2024/04/06 04:10:47;;;;;;;2.13;1.90;;;10.30;99.90;;;;;;5018728;28;20391;-81
2024/04/06 04:13:13;;;;;;;2.07;1.83;;;10.60;99.90;;;;;;5036681;28;20379;-80
2024/04/06 04:15:39;;;;;;;2.73;1.70;;;10.00;99.90;;;;;;5036117;28;20477;-80
2024/04/06 04:18:06;;;;;;;2.65;2.10;;;10.00;99.90;;;;;;5018592;28;20391;-81
2024/04/06 04:20:32;;;;;;;3.00;2.10;;;10.10;99.90;;;;;;5036507;28;20399;-80
2024/04/06 04:22:58;;;;;;;2.05;1.85;;;12.90;99.90;;;;;;5033758;28;20901;-79
2024/04/06 04:25:24;;;;;;;1.97;1.80;;;10.00;99.90;;;;;;5036002;28;20394;-80
2024/04/06 04:27:50;;;;;;;2.65;1.88;;;10.40;99.90;;;;;;5017290;28;20405;-80
2024/04/06 04:30:15;;;;;;;1.90;1.80;;;10.30;99.90;;;;;;5019050;28;20982;-81
2024/04/06 04:32:42;;;;;;;2.00;1.80;;;10.20;99.90;;;;;;5018438;28;20442;-80
2024/04/06 04:35:07;;;;;;;3.33;2.10;;;10.40;99.90;;;;;;5023624;28;20755;-81
2024/04/06 04:37:33;;;;;;;3.35;2.30;;;10.40;99.90;;;;;;5019109;28;20391;-80
2024/04/06 04:39:58;;;;;;;2.40;2.10;;;10.80;99.90;;;;;;5018067;28;20764;-80
2024/04/06 04:42:24;;;;;;;2.53;2.03;;;10.30;99.90;;;;;;5028872;28;20484;-80
2024/04/06 04:44:49;;;;;;;2.30;2.00;;;11.50;99.90;;;;;;5016187;28;20393;-81
2024/04/06 04:47:15;;;;;;;2.15;1.83;;;10.40;99.90;;;;;;4997941;28;20765;-80
2024/04/06 04:49:40;;;;;;;3.13;1.93;;;10.30;99.90;;;;;;5014426;28;20404;-80
2024/04/06 04:52:06;;;;;;;3.00;2.00;;;9.90;99.90;;;;;;5014640;28;20777;-79
2024/04/06 04:54:31;;;;;;;3.53;2.03;;;10.40;99.90;;;;;;4998285;28;20429;-81
2024/04/06 04:56:57;;;;;;;2.30;2.07;;;10.40;99.90;;;;;;5015636;28;20753;-80
2024/04/06 04:59:24;;;;;;;2.47;1.80;;;10.70;99.90;;;;;;5015683;28;20393;-80
2024/04/06 05:01:50;;;;;;;3.77;2.00;;;10.40;99.90;;;;;;5016265;28;20396;-80
2024/04/06 05:04:15;;;;;;;2.10;1.90;;;10.00;99.90;;;;;;5015624;28;20907;-80
2024/04/06 05:06:41;;;;;;;2.70;2.20;;;10.30;99.90;;;;;;5015270;28;20396;-80
2024/04/06 05:09:07;;;;;;;2.40;1.92;;;10.30;99.90;;;;;;5016438;28;20936;-79
2024/04/06 05:11:33;;;;;;;2.60;1.80;;;9.90;99.90;;;;;;5013183;28;20409;-80
2024/04/06 05:13:59;;;;;;;2.17;1.40;;;10.00;99.90;;;;;;5013437;28;20393;-79
2024/04/06 05:16:25;;;;;;;2.40;1.90;;;10.20;99.90;;;;;;5021894;28;20779;-80
2024/04/06 05:18:50;;;;;;;2.22;1.70;;;10.00;99.90;;;;;;4999808;28;20387;-81
2024/04/06 05:21:16;;;;;;;2.50;1.67;;;10.60;99.90;;;;;;5015570;28;20901;-80
2024/04/06 05:23:41;;;;;;;3.67;2.10;;;10.30;99.90;;;;;;5002656;28;20763;-80
2024/04/06 05:26:07;;;;;;;2.45;1.60;;;10.70;99.90;;;;;;5041239;28;20453;-79
2024/04/06 05:28:32;;;;;;;1.80;1.70;;;10.40;99.90;;;;;;5049247;28;20403;-79
2024/04/06 05:30:58;;;;;;;3.43;1.60;;;10.20;99.90;;;;;;5043207;28;20429;-81
2024/04/06 05:33:23;;;;;;;2.90;1.90;;;12.10;99.90;;;;;;5034197;28;20467;-80
2024/04/06 05:35:50;;;;;;;2.83;2.20;;;10.60;99.90;;;;;;5032710;28;20395;-79
2024/04/06 05:38:17;;;;;;;2.30;1.73;;;10.60;99.90;;;;;;5034386;28;20414;-80
2024/04/06 05:40:44;;;;;;;2.13;1.70;;;10.60;99.90;;;;;;5036902;28;20392;-80
2024/04/06 05:43:10;;;;;;;3.05;1.90;;;10.10;99.90;;;;;;5027414;28;20391;-79
2024/04/06 05:45:41;;;;;;;2.90;1.70;;;14.10;99.90;;;;;;5041392;28;20410;-80
2024/04/06 05:48:07;;;;;;;3.50;2.30;;;11.00;99.90;;;;;;5040897;28;20390;-81
2024/04/06 05:50:34;;;;;;;4.32;2.45;;;10.90;99.90;;;;;;5035600;28;20379;-81
2024/04/06 05:53:00;;;;;;;3.30;2.50;;;10.70;99.90;;;;;;5016794;28;20388;-80
2024/04/06 05:55:26;;;;;;;3.50;2.20;;;10.70;99.90;;;;;;5034897;28;20421;-80
2024/04/06 05:57:52;;;;;;;4.20;2.10;;;11.00;99.90;;;;;;5034219;28;20382;-80
2024/04/06 06:00:18;;;;;;;3.83;2.10;;;;;;;;;;5034487;28;20883;-80
2024/04/06 06:02:44;;;;;;;2.15;1.90;;;11.20;99.90;;;;;;5015845;28;20393;-80
2024/04/06 06:05:10;;;;;;;2.78;1.88;;;10.90;99.90;;;;;;5015092;28;20381;-81
2024/04/06 06:07:36;;;;;;;4.75;2.00;;;11.40;99.90;;;;;;5013985;28;20395;-80
2024/04/06 06:10:02;;;;;;;5.30;2.08;;;10.80;99.90;;;;;;5025046;28;20377;-79
2024/04/06 06:12:28;;;;;;;3.30;1.90;;;11.10;99.90;;;;;;5029861;28;20405;-79
2024/04/06 06:14:54;;;;;;;2.70;1.70;;;11.50;99.90;;;;;;5014424;28;20472;-80
2024/04/06 06:17:19;;;;;;;3.20;2.10;;;11.50;99.90;;;;;;5000746;28;20459;-82
2024/04/06 06:19:45;;;;;;;4.70;1.80;;;11.60;99.90;;;;;;5015725;28;20400;-81
2024/04/06 06:22:10;;;;;;;2.22;1.67;;;11.70;99.90;;;;;;4997124;28;20864;-82
2024/04/06 06:24:37;;;;;;;3.07;1.87;;;11.40;99.90;;;;;;5038324;28;20391;-78
2024/04/06 06:27:02;;;;;;;4.07;1.70;;;11.60;99.90;;;;;;5049455;28;20405;-79
2024/04/06 06:29:28;;;;;;;2.10;1.73;;;11.50;99.90;;;;;;5044392;28;20387;-80
2024/04/06 06:31:53;;;;;;;1.80;1.70;;;11.80;99.90;;;;;;5017548;28;20403;-81
2024/04/06 06:34:20;;;;;;;2.60;1.90;;;13.90;99.90;;;;;;5033473;28;20404;-79
2024/04/06 06:36:49;;;;;;;2.80;1.70;;;12.70;99.90;;;;;;5033057;28;20444;-79
2024/04/06 06:39:14;;;;;;;3.28;1.70;;;11.30;99.90;;;;;;5034248;28;20375;-80
2024/04/06 06:41:40;;;;;;;2.72;1.60;;;12.00;99.90;;;;;;5035538;28;20383;-80
2024/04/06 06:44:06;;;;;;;2.70;2.20;;;14.60;99.90;;;;;;5016646;28;20391;-80
2024/04/06 06:46:31;;;;;;;2.30;1.90;;;12.80;99.90;;;;;;5034422;28;20452;-81
2024/04/06 06:48:57;;;;;;;1.63;1.53;;;12.70;99.90;;;;;;5033743;28;20771;-80
2024/04/06 06:51:23;;;;;;;2.10;1.60;;;;;;;;;;5014315;28;20411;-81
2024/04/06 06:53:49;;;;;;;1.52;1.42;;;12.70;99.90;;;;;;5025016;28;20396;-78
2024/04/06 06:56:14;;;;;;;4.00;2.00;;;13.00;99.90;;;;;;5047912;28;20393;-78
2024/04/06 06:58:40;;;;;;;1.70;1.60;;;13.00;99.90;;;;;;5056666;28;20450;-78
2024/04/06 07:01:05;;;;;;;2.27;1.70;;;13.20;99.90;;;;;;5054933;28;20398;-80
2024/04/06 07:03:31;;;;;;;3.40;1.55;;;14.50;99.90;;;;;;5033005;28;20772;-81
2024/04/06 07:05:56;;;;;;;3.30;1.70;;;14.50;99.90;;;;;;5027513;28;20383;-80
2024/04/06 07:08:22;;;;;;;2.00;1.40;;;13.90;99.90;;;;;;5035557;28;20398;-81
2024/04/06 07:10:47;;;;;;;2.80;1.50;;;14.40;99.90;;;;;;5036361;28;20465;-80
2024/04/06 07:13:13;;;;;;;3.53;1.60;;;14.10;99.90;;;;;;5036450;28;20410;-81
2024/04/06 07:15:38;;;;;;;2.60;1.63;;;16.80;99.90;;;;;;5047352;28;20434;-80
2024/04/06 07:18:04;;;;;;;1.73;1.63;;;15.00;99.90;;;;;;5038611;28;20402;-81
2024/04/06 07:20:30;;;;;;;4.40;1.50;;;14.80;99.90;;;;;;5043302;28;20464;-81
2024/04/06 07:22:56;;;;;;;3.80;1.67;;;15.30;99.90;;;;;;5047201;28;20397;-81
2024/04/06 07:25:21;;;;;;;2.50;1.60;;;15.90;99.90;;;;;;5028136;28;20398;-80
2024/04/06 07:27:47;;;;;;;1.50;1.33;;;15.80;99.90;;;;;;5045600;28;20419;-79
2024/04/06 07:30:13;;;;;;;2.60;1.60;;;15.60;99.90;;;;;;5063316;28;20423;-79
2024/04/06 07:32:38;;;;;;;2.70;1.58;;;16.50;99.90;;;;;;5036294;28;20438;-81
2024/04/06 07:35:09;;;;;;;2.23;1.80;;;15.70;99.90;;;;;;5042546;28;20391;-81
2024/04/06 07:37:35;;;;;;;1.90;1.40;;;16.00;99.90;;;;;;5040651;28;20954;-80
2024/04/06 07:40:04;;;;;;;1.40;1.30;;;16.60;99.90;;;;;;5018775;28;20475;-81
2024/04/06 07:42:31;;;;;;;2.75;1.50;;;16.00;99.90;;;;;;5019621;28;20408;-80
2024/04/06 07:44:56;;;;;;;2.50;1.38;;;16.80;99.90;;;;;;5020381;28;20419;-81
2024/04/06 07:47:22;;;;;;;1.42;1.33;;;16.30;99.90;;;;;;5037238;28;20393;-80
2024/04/06 07:49:47;;;;;;;4.03;1.60;;;16.50;99.90;;;;;;5019028;28;20747;-80
2024/04/06 07:52:13;;;;;;;2.63;1.30;;;16.40;99.90;;;;;;5038236;28;20407;-80
2024/04/06 07:54:39;;;;;;;2.65;1.90;;;17.00;99.90;;;;;;5009890;28;20387;-80
2024/04/06 07:57:05;;;;;;;2.25;1.40;;;16.90;99.90;;;;;;5028848;28;20491;-80
2024/04/06 07:59:32;;;;;;;2.38;1.60;;;17.10;99.90;;;;;;5008290;28;20389;-80
2024/04/06 08:01:57;;;;;;;2.72;1.30;;;17.00;99.90;;;;;;5036773;28;20426;-80
2024/04/06 08:04:23;;;;;;;2.70;1.80;;;18.30;99.90;;;;;;5018691;28;20486;-80
2024/04/06 08:06:50;;;;;;;2.92;1.45;;;17.60;99.90;;;;;;5024880;28;20396;-80
2024/04/06 08:09:16;;;;;;;3.90;1.70;;;17.40;99.90;;;;;;5036522;28;20399;-80
2024/04/06 08:11:41;;;;;;;1.92;1.40;;;17.70;99.90;;;;;;5016040;28;20410;-82
2024/04/06 08:14:07;;;;;;;3.10;1.40;;;17.40;99.90;;;;;;5018097;28;20391;-81
2024/04/06 08:16:34;;;;;;;2.22;1.30;;;18.10;99.90;;;;;;5036065;28;20393;-81
2024/04/06 08:18:59;;;;;;;3.40;1.30;;;17.80;99.90;;;;;;5017724;28;20874;-80
2024/04/06 08:21:25;;;;;;;1.90;1.50;;;18.20;99.90;;;;;;5018267;28;20395;-81
2024/04/06 08:23:50;;;;;;;2.57;1.30;;;20.90;99.90;;;;;;5009331;28;21124;-81
2024/04/06 08:26:16;;;;;;;2.00;1.60;;;18.10;99.90;;;;;;5014355;28;20386;-81
2024/04/06 08:28:41;;;;;;;2.13;1.37;;;20.30;99.90;;;;;;5036376;28;20913;-81
2024/04/06 08:31:07;;;;;;;2.60;1.30;;;20.40;99.90;;;;;;5025575;28;20803;-81
2024/04/06 08:33:32;;;;;;;2.83;1.27;;;19.30;99.90;;;;;;5026313;28;20387;-81
2024/04/06 08:36:02;;;;;;;1.85;1.20;;;;;;;;;;5035515;28;20387;-81
2024/04/06 08:38:27;;;;;;;2.50;1.60;;;19.10;99.90;;;;;;5035323;28;20788;-81
2024/04/06 08:40:53;;;;;;;3.70;2.10;;;18.60;99.90;;;;;;5027433;28;20436;-81
2024/04/06 08:43:19;;;;;;;2.72;1.40;;;19.00;99.90;;;;;;5010119;28;20394;-80
2024/04/06 08:45:45;;;;;;;3.10;1.40;;;19.00;99.90;;;;;;5037095;28;20373;-79
2024/04/06 08:48:12;;;;;;;3.00;1.92;;;19.50;99.90;;;;;;5028126;28;20814;-81
2024/04/06 08:50:38;;;;;;;3.17;1.77;;;20.00;99.90;;;;;;5028993;28;20411;-81
2024/04/06 08:53:06;;;;;;;3.50;1.98;;;18.80;99.90;;;;;;5034650;28;20421;-81
2024/04/06 08:55:32;;;;;;;2.00;1.43;;;19.10;99.90;;;;;;5018019;28;20441;-81
2024/04/06 08:57:59;;;;;;;4.82;1.73;;;19.40;99.90;;;;;;5039115;28;20443;-81
2024/04/06 09:00:27;;;;;;;2.50;1.60;;;19.50;99.90;;;;;;5048216;28;20451;-80
2024/04/06 09:02:52;;;;;;;2.47;1.60;;;22.20;99.90;;;;;;5048436;28;20389;-80
2024/04/06 09:05:18;;;;;;;3.13;1.42;;;22.60;99.90;;;;;;5031163;28;20907;-82
2024/04/06 09:07:51;;;;;;;1.23;1.13;;;20.80;99.90;;;;;;5008153;28;20446;-81
2024/04/06 09:10:17;;;;;;;3.40;1.60;;;20.60;99.90;;;;;;5033787;28;20477;-81
2024/04/06 09:12:42;;;;;;;1.20;1.10;;;22.50;99.90;;;;;;5017454;28;20941;-81
2024/04/06 09:15:14;;;;;;;2.50;1.40;;;20.80;99.90;;;;;;5036087;28;20480;-82
2024/04/06 09:17:39;;;;;;;3.80;1.30;;;21.20;99.90;;;;;;5036226;28;20434;-80
2024/04/06 09:20:06;;;;;;;1.20;1.10;;;21.80;99.90;;;;;;5050114;28;20382;-79
2024/04/06 09:22:31;;;;;;;1.60;1.30;;;21.60;99.90;;;;;;5031580;28;20391;-81
2024/04/06 09:24:57;;;;;;;1.80;1.20;;;22.70;99.90;;;;;;5029902;28;20430;-78
2024/04/06 09:27:22;;;;;;;1.93;1.20;;;22.30;99.90;;;;;;5039556;28;20925;-80
2024/04/06 09:29:48;;;;;;;2.03;1.20;;;22.00;99.90;;;;;;5017969;28;20466;-79
2024/04/06 09:32:18;;;;;;;1.20;0.98;;;21.60;99.90;;;;;;5027552;28;20417;-78
2024/04/06 09:34:49;;;;;;;2.00;1.50;;;21.70;99.90;;;;;;5033262;28;20379;-79
2024/04/06 09:37:27;;;;;;;1.90;1.20;;;21.90;99.90;;;;;;5026699;28;20824;-80
2024/04/06 09:39:55;;;;;;;1.45;1.00;;;21.80;99.90;;;;;;5038787;28;20387;-80
2024/04/06 09:42:22;;;;;;;2.10;1.13;;;21.30;99.90;;;;;;5034089;28;20477;-79
2024/04/06 09:44:49;;;;;;;1.40;1.20;;;21.20;99.90;;;;;;5035667;28;20407;-80
2024/04/06 09:47:16;;;;;;;1.52;1.20;;;21.90;99.90;;;;;;5035531;28;20406;-80
2024/04/06 09:49:42;;;;;;;2.15;1.30;;;23.80;46.40;;;;;;5037895;28;20383;-80
2024/04/06 09:52:09;;;;;;;2.08;1.50;;;21.60;99.90;;;;;;5019605;28;20413;-80
2024/04/06 09:54:34;;;;;;;1.50;1.40;;;21.80;99.90;;;;;;5036051;28;20492;-80
2024/04/06 09:57:00;;;;;;;2.00;1.30;;;21.70;99.90;;;;;;5036586;28;20403;-80
2024/04/06 09:59:29;;;;;;;1.40;1.30;;;23.70;99.90;;;;;;5016431;28;20383;-81
2024/04/06 10:01:56;;;;;;;1.90;1.35;;;21.40;99.90;;;;;;4998724;28;20420;-81
2024/04/06 10:04:27;;;;;;;2.22;1.60;;;21.90;99.90;;;;;;5015633;28;20391;-81
2024/04/06 10:06:56;;;;;;;2.65;1.33;;;22.10;99.90;;;;;;5018855;28;20420;-81
2024/04/06 10:09:31;;;;;;;1.25;1.15;;;22.60;21.80;;;;;;5031141;28;20389;-79
2024/04/06 10:12:00;;;;;;;3.28;1.40;;;22.10;1.00;;;;;;5029891;28;20408;-80
2024/04/06 10:14:26;;;;;;;1.60;1.00;;;24.10;1.00;;;;;;5032470;28;20385;-79
2024/04/06 10:17:04;;;;;;;1.50;1.30;;;22.70;1.00;;;;;;5032241;28;20400;-79
2024/04/06 10:19:30;;;;;;;1.57;1.20;;;22.90;1.00;;;;;;5030654;28;20392;-79
2024/04/06 10:22:03;;;;;;;1.95;1.10;;;25.60;1.00;;;;;;5031010;28;20500;-80
2024/04/06 10:24:28;;;;;;;1.88;1.20;;;24.00;1.00;;;;;;5043494;28;20463;-80
2024/04/06 10:26:56;;;;;;;1.87;1.20;;;23.20;1.00;;;;;;5034770;28;20407;-81
2024/04/06 10:29:23;;;;;;;1.20;1.00;;;22.60;41.50;;;;;;5035119;28;20477;-80
2024/04/06 10:31:49;;;;;;;2.83;1.10;;;22.90;13.70;;;;;;5034837;28;20430;-80
2024/04/06 10:34:16;;;;;;;1.70;1.30;;;24.70;1.00;;;;;;5032724;28;20413;-80
2024/04/06 10:36:42;;;;;;;2.28;1.10;;;22.90;9.80;;;;;;5051566;28;20389;-80
2024/04/06 10:39:08;;;;;;;1.88;1.10;;;25.40;1.00;;;;;;5050117;28;20462;-80
2024/04/06 10:41:36;;;;;;;1.40;1.10;;;23.70;18.60;;;;;;5049939;28;20399;-81
2024/04/06 10:44:02;;;;;;;3.20;1.30;;;23.70;20.90;;;;;;5025309;28;20420;-80
2024/04/06 10:46:28;;;;;;;2.00;1.20;;;23.70;1.00;;;;;;5022382;28;20396;-81
2024/04/06 10:48:54;;;;;;;1.52;1.13;;;24.50;1.00;;;;;;5029016;28;20396;-80
2024/04/06 10:51:21;;;;;;;1.50;1.10;;;24.20;1.00;;;;;;5030837;28;20409;-80
2024/04/06 10:53:46;;;;;;;1.40;1.10;;;25.60;1.00;;;;;;5041677;28;20422;-80
2024/04/06 10:56:12;;;;;;;2.10;1.20;;;24.20;1.00;;;;;;5024881;28;20399;-80
2024/04/06 10:58:38;;;;;;;1.55;1.20;;;24.90;1.00;;;;;;5028505;28;20383;-81
2024/04/06 11:01:08;;;;;;;2.10;1.40;;;24.20;1.00;;;;;;5022280;28;20472;-81
2024/04/06 11:03:34;;;;;;;2.17;1.40;;;24.20;1.00;;;;;;5040060;28;20395;-81
2024/04/06 11:06:00;;;;;;;1.70;1.10;;;25.70;1.00;;;;;;5021541;28;20391;-81
2024/04/06 11:08:25;;;;;;;2.50;1.20;;;24.70;1.00;;;;;;5037899;28;20394;-81
2024/04/06 11:10:51;;;;;;;1.40;1.00;;;26.10;1.00;;;;;;5034158;28;20430;-81
2024/04/06 11:13:16;;;;;;;2.00;1.00;;;25.10;1.00;;;;;;5018415;28;20479;-80
2024/04/06 11:15:42;;;;;;;1.60;1.40;;;25.50;1.00;;;;;;5019494;28;20457;-81
2024/04/06 11:18:07;;;;;;;3.42;1.38;;;25.60;14.30;;;;;;5001107;28;20419;-81
2024/04/06 11:20:33;;;;;;;2.60;1.10;;;25.70;1.00;;;;;;5002793;28;20447;-79
2024/04/06 11:22:59;;;;;;;2.00;1.38;;;26.20;6.40;;;;;;5017560;28;20399;-81
2024/04/06 11:25:26;;;;;;;2.40;1.30;;;27.20;25.70;;;;;;5025894;28;20419;-79
2024/04/06 11:27:52;;;;;;;3.40;1.15;;;26.20;99.90;;;;;;5051851;28;20420;-79
2024/04/06 11:30:19;;;;;;;1.80;1.02;;;26.30;99.90;;;;;;5065017;28;20411;-80
2024/04/06 11:32:50;;;;;;;1.30;1.10;;;26.90;99.90;;;;;;5045287;28;20503;-80
2024/04/06 11:35:17;;;;;;;1.30;1.00;;;27.50;99.90;;;;;;5030444;28;20395;-80
2024/04/06 11:37:44;;;;;;;2.28;1.50;;;27.30;99.90;;;;;;5041117;28;20438;-82
2024/04/06 11:40:10;;;;;;;3.17;1.38;;;28.20;99.90;;;;;;5022874;28;20393;-81
2024/04/06 11:42:35;;;;;;;1.93;1.30;;;28.30;99.90;;;;;;5032258;28;20403;-83
2024/04/06 11:45:01;;;;;;;1.10;0.90;;;28.90;1.00;;;;;;5044214;28;20398;-79
2024/04/06 11:47:27;;;;;;;1.52;1.20;;;28.30;1.00;;;;;;5045027;28;20784;-80
2024/04/06 11:49:53;;;;;;;0.95;0.80;;;28.70;1.00;;;;;;5036402;28;20929;-80
2024/04/06 11:52:18;;;;;;;1.00;0.90;;;29.40;1.00;;;;;;5036543;28;20446;-82
2024/04/06 11:54:44;;;;;;;1.98;1.00;;;30.50;1.00;;;;;;5047750;28;20421;-81
2024/04/06 11:57:10;;;;;;;2.17;1.00;;;30.20;1.00;;;;;;5049083;28;20401;-78
2024/04/06 11:59:37;;;;;;;2.25;1.00;;;30.80;1.00;;;;;;5041682;28;20525;-78
2024/04/06 12:02:03;;;;;;;1.50;0.93;;;31.10;1.00;;;;;;5019749;28;20429;-79
2024/04/06 12:04:28;;;;;;;1.30;1.00;;;31.20;1.00;;;;;;5055947;28;20397;-79
2024/04/06 12:06:55;;;;;;;1.90;1.00;;;31.00;1.00;;;;;;5049353;28;20395;-79
2024/04/06 12:09:21;;;;;;;1.30;0.90;;;30.80;1.00;;;;;;5021175;28;20398;-78
2024/04/06 12:11:46;;;;;;;2.10;0.60;;;30.30;1.00;;;;;;5039206;28;20415;-79
2024/04/06 12:14:12;;;;;;;1.50;0.90;;;30.30;1.00;;;;;;5032936;28;20460;-78
2024/04/06 12:16:37;;;;;;;1.80;0.70;;;30.60;1.00;;;;;;5030361;28;20401;-78
2024/04/06 12:19:03;;;;;;;1.60;0.80;;;30.50;1.00;;;;;;5058291;28;20877;-79
2024/04/06 12:21:29;;;;;;;1.33;0.70;;;30.50;1.00;;;;;;5042274;28;20385;-79
2024/04/06 12:23:55;;;;;;;0.90;0.70;;;29.80;1.00;;;;;;5050740;28;20881;-79
2024/04/06 12:26:21;;;;;;;2.90;0.80;;;29.80;1.00;;;;;;5046723;28;20390;-78
2024/04/06 12:28:48;;;;;;;1.50;0.70;;;30.00;1.00;;;;;;5049108;28;20450;-79
2024/04/06 12:31:14;;;;;;;1.83;0.80;;;30.70;1.00;;;;;;5037720;28;21079;-79
2024/04/06 12:33:39;;;;;;;1.47;0.90;;;30.80;1.00;;;;;;5037486;28;20387;-79
2024/04/06 12:36:05;;;;;;;1.83;0.93;;;31.00;1.00;;;;;;5036182;28;20391;-79
2024/04/06 12:38:30;;;;;;;0.90;0.70;;;30.20;1.00;;;;;;5019571;28;20466;-79
2024/04/06 12:40:56;;;;;;;1.30;0.80;;;32.50;1.00;;;;;;5035250;28;20937;-78
2024/04/06 12:43:22;;;;;;;1.30;0.70;;;30.50;1.00;;;;;;5029384;28;20417;-78